createdAt,value
2018-06-02T00:04:47.485Z,18.30
2018-06-02T00:09:40.775Z,18.22
2018-06-02T00:14:34.076Z,18.18
2018-06-02T00:19:27.521Z,18.04
2018-06-02T00:24:20.841Z,17.98
2018-06-02T00:29:14.526Z,17.91
2018-06-02T00:34:07.818Z,17.85
2018-06-02T00:39:01.158Z,17.89
2018-06-02T00:43:54.570Z,17.82
2018-06-02T00:53:40.471Z,17.62
2018-06-02T00:58:33.766Z,17.72
2018-06-02T01:03:27.058Z,17.57
2018-06-02T01:08:21.109Z,17.51
2018-06-02T01:13:14.401Z,17.44
2018-06-02T01:18:07.687Z,17.42
2018-06-02T01:23:01.778Z,17.40
2018-06-02T01:27:55.940Z,17.37
2018-06-02T01:32:49.327Z,17.26
2018-06-02T01:37:42.669Z,17.28
2018-06-02T01:42:35.997Z,17.20
2018-06-02T01:47:29.303Z,17.14
2018-06-02T01:52:23.371Z,17.16
2018-06-02T01:57:16.657Z,17.16
2018-06-02T02:02:09.959Z,17.07
2018-06-02T02:07:04.011Z,17.01
2018-06-02T02:11:57.304Z,16.98
2018-06-02T02:16:50.590Z,16.99
2018-06-02T02:21:43.898Z,16.98
2018-06-02T02:26:37.174Z,16.98
2018-06-02T02:31:30.545Z,16.93
2018-06-02T02:36:24.577Z,16.91
2018-06-02T02:41:17.877Z,16.84
2018-06-02T02:46:11.168Z,16.78
2018-06-02T02:51:04.543Z,16.73
2018-06-02T02:55:57.839Z,16.79
2018-06-02T03:00:52.322Z,16.82
2018-06-02T03:05:45.613Z,16.74
2018-06-02T03:10:38.912Z,16.66
2018-06-02T03:15:33.592Z,16.57
2018-06-02T03:20:26.964Z,16.54
2018-06-02T03:25:20.280Z,16.50
2018-06-02T03:30:14.338Z,16.51
2018-06-02T03:35:07.625Z,16.45
2018-06-02T03:40:00.923Z,16.46
2018-06-02T03:44:54.972Z,16.56
2018-06-02T03:49:49.043Z,16.63
2018-06-02T03:54:42.399Z,16.68
2018-06-02T03:59:35.661Z,17.18
2018-06-02T04:04:28.940Z,18.17
2018-06-02T04:09:22.997Z,19.24
2018-06-02T04:14:17.814Z,20.06
2018-06-02T04:19:11.109Z,20.64
2018-06-02T04:24:04.390Z,21.29
2018-06-02T04:28:57.701Z,20.53
2018-06-02T04:33:50.999Z,20.54
2018-06-02T04:38:45.156Z,21.69
2018-06-02T04:43:39.209Z,22.46
2018-06-02T04:48:32.509Z,23.44
2018-06-02T04:53:26.557Z,24.28
2018-06-02T04:58:19.848Z,25.00
2018-06-02T05:03:13.453Z,25.03
2018-06-02T05:08:06.755Z,25.34
2018-06-02T05:13:00.041Z,25.58
2018-06-02T05:17:54.097Z,25.28
2018-06-02T05:22:47.366Z,25.05
2018-06-02T05:27:40.709Z,25.39
2018-06-02T05:32:33.990Z,26.32
2018-06-02T05:37:27.289Z,26.86
2018-06-02T05:42:20.577Z,27.01
2018-06-02T05:47:13.881Z,27.03
2018-06-02T05:52:07.153Z,27.68
2018-06-02T05:57:00.475Z,28.63
2018-06-02T06:01:53.849Z,28.21
2018-06-02T06:06:47.186Z,28.21
2018-06-02T06:11:40.465Z,28.54
2018-06-02T06:16:34.900Z,27.89
2018-06-02T06:21:28.937Z,26.91
2018-06-02T06:26:22.236Z,26.38
2018-06-02T06:31:15.524Z,24.79
2018-06-02T06:36:08.805Z,25.13
2018-06-02T06:41:03.020Z,26.09
2018-06-02T06:45:57.081Z,26.11
2018-06-02T06:50:50.363Z,26.35
2018-06-02T06:55:43.652Z,26.87
2018-06-02T07:00:36.936Z,26.50
2018-06-02T07:05:30.222Z,26.04
2018-06-02T07:10:23.490Z,26.46
2018-06-02T07:15:17.558Z,26.70
2018-06-02T07:20:10.857Z,26.54
2018-06-02T07:25:04.152Z,26.41
2018-06-02T07:29:58.241Z,25.98
2018-06-02T07:34:51.529Z,25.48
2018-06-02T07:39:45.590Z,25.06
2018-06-02T07:44:38.889Z,25.00
2018-06-02T07:49:32.173Z,24.90
2018-06-02T07:54:26.232Z,24.68
2018-06-02T07:59:19.527Z,24.92
2018-06-02T08:04:12.814Z,25.28
2018-06-02T08:09:06.136Z,25.57
2018-06-02T08:13:59.428Z,25.40
2018-06-02T08:18:52.739Z,25.19
2018-06-02T08:23:46.057Z,26.37
2018-06-02T08:28:39.344Z,25.96
2018-06-02T08:33:33.544Z,26.99
2018-06-02T08:38:26.763Z,26.56
2018-06-02T08:43:20.077Z,26.93
2018-06-02T08:48:13.363Z,26.67
2018-06-02T08:53:06.763Z,26.23
2018-06-02T08:58:00.175Z,26.25
2018-06-02T09:02:57.000Z,25.91
2018-06-02T09:07:50.284Z,26.54
2018-06-02T09:12:43.638Z,27.36
2018-06-02T09:17:36.926Z,27.24
2018-06-02T09:22:30.280Z,27.39
2018-06-02T09:27:24.376Z,27.77
2018-06-02T09:32:17.713Z,27.92
2018-06-02T09:37:10.998Z,27.81
2018-06-02T09:42:04.285Z,27.62
2018-06-02T09:46:57.569Z,26.89
2018-06-02T09:51:50.881Z,27.10
2018-06-02T09:56:44.167Z,28.09
2018-06-02T10:08:37.095Z,28.42
2018-06-02T10:13:30.370Z,28.72
2018-06-02T10:18:23.657Z,28.80
2018-06-02T10:23:16.954Z,29.04
2018-06-02T10:28:10.266Z,29.14
2018-06-02T10:33:04.333Z,29.38
2018-06-02T10:37:57.617Z,29.42
2018-06-02T10:42:50.897Z,29.46
2018-06-02T10:47:44.192Z,28.95
2018-06-02T10:52:37.492Z,29.14
2018-06-02T10:57:30.808Z,29.20
2018-06-02T11:02:24.124Z,29.34
2018-06-02T11:07:18.186Z,29.46
2018-06-02T11:12:11.453Z,29.33
2018-06-02T11:17:04.771Z,28.94
2018-06-02T11:21:58.841Z,28.22
2018-06-02T11:26:52.378Z,28.46
2018-06-02T11:31:45.680Z,28.97
2018-06-02T11:36:38.997Z,27.42
2018-06-02T11:41:32.350Z,27.78
2018-06-02T11:46:25.641Z,28.03
2018-06-02T11:51:18.924Z,28.25
2018-06-02T11:56:12.236Z,28.16
2018-06-02T12:01:05.539Z,28.45
2018-06-02T12:05:58.815Z,28.79
2018-06-02T12:10:52.093Z,28.51
2018-06-02T12:15:45.385Z,28.42
2018-06-02T12:20:38.724Z,28.84
2018-06-02T12:25:32.005Z,29.22
2018-06-02T12:30:25.396Z,29.37
2018-06-02T12:35:18.887Z,29.36
2018-06-02T12:40:12.201Z,28.82
2018-06-02T12:45:05.474Z,28.57
2018-06-02T12:49:58.773Z,29.05
2018-06-02T12:54:52.096Z,29.48
2018-06-02T12:59:45.389Z,29.13
2018-06-02T13:04:39.843Z,29.83
2018-06-02T13:09:33.910Z,30.04
2018-06-02T13:14:27.238Z,29.65
2018-06-02T13:19:20.535Z,29.36
2018-06-02T13:24:13.853Z,28.92
2018-06-02T13:29:07.133Z,29.38
2018-06-02T13:34:00.451Z,29.27
2018-06-02T13:38:53.736Z,29.10
2018-06-02T13:43:47.026Z,28.53
2018-06-02T13:48:40.337Z,28.40
2018-06-02T13:53:33.668Z,28.23
2018-06-02T13:58:26.954Z,28.52
2018-06-02T14:03:21.085Z,29.31
2018-06-02T14:08:14.377Z,29.64
2018-06-02T14:13:07.657Z,28.41
2018-06-02T14:18:00.954Z,28.13
2018-06-02T14:22:55.110Z,28.22
2018-06-02T14:27:48.414Z,28.24
2018-06-02T14:32:41.700Z,27.74
2018-06-02T14:37:36.714Z,28.12
2018-06-02T14:42:30.027Z,28.45
2018-06-02T14:47:23.333Z,27.96
2018-06-02T14:52:16.674Z,28.31
2018-06-02T14:57:09.960Z,28.46
2018-06-02T15:02:03.247Z,27.91
2018-06-02T15:06:56.546Z,27.08
2018-06-02T15:11:49.868Z,27.26
2018-06-02T15:16:43.929Z,27.13
2018-06-02T15:21:37.260Z,27.12
2018-06-02T15:26:30.577Z,27.39
2018-06-02T15:31:23.976Z,27.16
2018-06-02T15:36:17.978Z,27.07
2018-06-02T15:41:14.435Z,27.51
2018-06-02T15:46:07.890Z,27.58
2018-06-02T15:51:01.239Z,27.78
2018-06-02T15:55:54.557Z,27.22
2018-06-02T16:00:47.899Z,27.62
2018-06-02T16:05:41.121Z,27.16
2018-06-02T16:10:34.442Z,27.38
2018-06-02T16:15:27.741Z,27.24
2018-06-02T16:20:21.032Z,27.27
2018-06-02T16:25:14.421Z,27.55
2018-06-02T16:30:07.706Z,27.76
2018-06-02T16:35:01.022Z,27.37
2018-06-02T16:39:54.321Z,27.05
2018-06-02T16:44:47.609Z,27.24
2018-06-02T16:49:40.906Z,27.06
2018-06-02T16:54:34.241Z,27.01
2018-06-02T16:59:27.580Z,27.00
2018-06-02T17:04:20.861Z,27.03
2018-06-02T17:09:14.232Z,26.71
2018-06-02T17:14:07.604Z,26.61
2018-06-02T17:19:01.702Z,26.65
2018-06-02T17:23:54.986Z,26.64
2018-06-02T17:28:48.285Z,26.54
2018-06-02T17:33:42.341Z,26.68
2018-06-02T17:38:35.658Z,26.49
2018-06-02T17:43:29.745Z,26.52
2018-06-02T17:48:23.814Z,26.27
2018-06-02T17:53:17.456Z,26.22
2018-06-02T17:58:10.742Z,26.19
2018-06-02T18:03:04.058Z,26.23
2018-06-02T18:07:57.348Z,26.24
2018-06-02T18:12:50.625Z,25.98
2018-06-02T18:17:43.910Z,25.85
2018-06-02T18:22:37.193Z,25.69
2018-06-02T18:27:30.531Z,25.61
2018-06-02T18:32:23.811Z,25.58
2018-06-02T18:37:17.112Z,25.46
2018-06-02T18:42:11.688Z,25.29
2018-06-02T18:47:04.987Z,25.13
2018-06-02T18:51:58.273Z,25.11
2018-06-02T18:56:51.551Z,25.45
2018-06-02T19:01:44.888Z,25.39
2018-06-02T19:06:38.182Z,25.47
2018-06-02T19:11:31.468Z,24.71
2018-06-02T19:16:24.777Z,24.17
2018-06-02T19:21:18.838Z,23.45
2018-06-02T19:26:12.146Z,23.36
2018-06-02T19:31:06.226Z,23.17
2018-06-02T19:35:59.760Z,23.09
2018-06-02T19:40:53.074Z,23.07
2018-06-02T19:45:46.338Z,22.96
2018-06-02T19:50:39.691Z,22.92
2018-06-02T19:55:34.001Z,23.02
2018-06-02T20:00:27.283Z,22.90
2018-06-02T20:05:20.591Z,22.81
2018-06-02T20:10:13.900Z,22.85
2018-06-02T20:15:07.956Z,22.70
2018-06-02T20:20:01.290Z,22.66
2018-06-02T20:24:54.586Z,22.72
2018-06-02T20:29:47.871Z,22.64
2018-06-02T20:34:41.363Z,22.48
2018-06-02T20:39:34.636Z,22.25
2018-06-02T20:44:27.946Z,22.26
2018-06-02T20:49:21.280Z,22.10
2018-06-02T20:54:14.575Z,21.87
2018-06-02T20:59:07.873Z,21.79
2018-06-02T21:04:01.185Z,21.85
2018-06-02T21:08:56.090Z,21.70
2018-06-02T21:13:50.151Z,21.63
2018-06-02T21:18:43.469Z,21.52
2018-06-02T21:23:37.532Z,21.48
2018-06-02T21:28:30.885Z,21.47
2018-06-02T21:33:24.170Z,21.41
2018-06-02T21:38:17.492Z,21.37
2018-06-02T21:43:11.534Z,21.33
2018-06-02T21:48:04.831Z,21.30
2018-06-02T21:52:58.110Z,21.18
2018-06-02T21:57:51.423Z,20.99
2018-06-02T22:02:45.461Z,21.02
2018-06-02T22:07:38.779Z,20.87
2018-06-02T22:12:32.065Z,20.80
2018-06-02T22:17:25.365Z,20.70
2018-06-02T22:22:19.426Z,20.64
2018-06-02T22:27:12.746Z,20.55
2018-06-02T22:32:06.017Z,20.51
2018-06-02T22:36:59.346Z,20.42
2018-06-02T22:41:52.642Z,20.35
2018-06-02T22:46:45.929Z,20.27
2018-06-02T22:51:57.641Z,20.18
2018-06-02T22:56:51.838Z,20.15
2018-06-02T23:01:45.166Z,20.00
2018-06-02T23:06:38.462Z,20.06
2018-06-02T23:11:31.764Z,19.98
2018-06-02T23:16:25.115Z,19.83
2018-06-02T23:21:18.445Z,19.71
2018-06-02T23:26:11.743Z,19.54
2018-06-02T23:31:05.037Z,19.51
2018-06-02T23:35:58.333Z,19.43
2018-06-02T23:40:51.618Z,19.32
2018-06-02T23:45:44.915Z,19.20
2018-06-02T23:50:38.198Z,19.20
2018-06-02T23:55:31.512Z,19.21
